createdAt,value
2023-01-30T00:00:43.860Z,2.14
2023-01-30T00:03:13.348Z,2.16
2023-01-30T00:05:45.327Z,2.19
2023-01-30T00:08:14.767Z,2.19
2023-01-30T00:10:45.993Z,2.23
2023-01-30T00:13:16.992Z,2.24
2023-01-30T00:15:46.926Z,2.21
2023-01-30T00:18:16.388Z,2.24
2023-01-30T00:20:48.430Z,2.26
2023-01-30T00:23:17.817Z,2.34
2023-01-30T00:25:48.426Z,2.34
2023-01-30T00:28:18.140Z,2.34
2023-01-30T00:30:47.553Z,2.36
2023-01-30T00:33:16.969Z,2.38
2023-01-30T00:35:49.512Z,2.39
2023-01-30T00:38:19.477Z,2.39
2023-01-30T00:40:49.903Z,2.46
2023-01-30T00:43:33.961Z,2.46
2023-01-30T00:46:18.127Z,2.50
2023-01-30T00:48:47.570Z,2.50
2023-01-30T00:51:19.590Z,2.58
2023-01-30T00:53:48.964Z,2.58
2023-01-30T00:56:18.388Z,2.63
2023-01-30T00:58:47.771Z,2.61
2023-01-30T01:01:17.162Z,2.64
2023-01-30T01:03:46.917Z,2.66
2023-01-30T01:06:19.144Z,2.68
2023-01-30T01:08:48.536Z,2.71
2023-01-30T01:11:24.657Z,2.75
2023-01-30T01:13:55.896Z,2.74
2023-01-30T01:16:26.965Z,2.75
2023-01-30T01:18:56.829Z,2.76
2023-01-30T01:21:28.995Z,2.77
2023-01-30T01:24:00.901Z,2.80
2023-01-30T01:26:30.630Z,2.82
2023-01-30T01:29:00.591Z,2.83
2023-01-30T01:31:30.132Z,2.84
2023-01-30T01:34:00.001Z,2.86
2023-01-30T01:39:21.390Z,2.90
2023-01-30T01:41:48.292Z,2.94
2023-01-30T01:44:18.073Z,2.95
2023-01-30T01:46:50.094Z,2.94
2023-01-30T01:49:24.070Z,2.95
2023-01-30T01:51:59.368Z,2.94
2023-01-30T01:54:33.936Z,2.97
2023-01-30T01:57:06.105Z,2.95
2023-01-30T01:59:39.361Z,3.01
2023-01-30T02:02:11.757Z,3.02
2023-01-30T02:04:57.226Z,3.03
2023-01-30T02:07:29.969Z,3.05
2023-01-30T02:10:00.314Z,3.08
2023-01-30T02:12:30.104Z,3.09
2023-01-30T02:15:01.097Z,3.09
2023-01-30T02:17:30.692Z,3.06
2023-01-30T02:20:06.764Z,3.01
2023-01-30T02:23:18.676Z,3.02
2023-01-30T02:26:06.662Z,3.03
2023-01-30T02:28:55.056Z,3.05
2023-01-30T02:31:36.067Z,3.05
2023-01-30T02:34:14.673Z,3.04
2023-01-30T02:36:54.924Z,3.06
2023-01-30T02:39:31.879Z,3.10
2023-01-30T02:42:06.058Z,3.17
2023-01-30T02:44:42.197Z,3.20
2023-01-30T02:47:16.906Z,3.19
2023-01-30T02:49:50.733Z,3.21
2023-01-30T02:52:20.128Z,3.22
2023-01-30T02:54:49.519Z,3.28
2023-01-30T02:57:22.511Z,3.27
2023-01-30T02:59:56.603Z,3.31
2023-01-30T03:03:10.673Z,3.32
2023-01-30T03:05:50.676Z,3.36
2023-01-30T03:08:28.583Z,3.40
2023-01-30T03:11:01.622Z,3.41
2023-01-30T03:13:37.516Z,3.41
2023-01-30T03:16:09.779Z,3.41
2023-01-30T03:18:43.484Z,3.44
2023-01-30T03:21:14.366Z,3.44
2023-01-30T03:23:43.784Z,3.46
2023-01-30T03:26:18.797Z,3.48
2023-01-30T03:28:49.544Z,3.50
2023-01-30T03:31:19.078Z,3.52
2023-01-30T03:33:51.809Z,3.52
2023-01-30T03:36:21.589Z,3.56
2023-01-30T03:38:50.993Z,3.58
2023-01-30T03:41:20.695Z,3.58
2023-01-30T03:43:50.138Z,3.60
2023-01-30T03:46:19.620Z,3.60
2023-01-30T03:48:51.640Z,3.62
2023-01-30T03:51:21.119Z,3.61
2023-01-30T03:53:50.500Z,3.61
2023-01-30T03:56:19.967Z,3.63
2023-01-30T03:58:49.370Z,3.65
2023-01-30T04:01:18.805Z,3.65
2023-01-30T04:03:50.874Z,3.70
2023-01-30T04:06:20.288Z,3.69
2023-01-30T04:08:49.705Z,3.40
2023-01-30T04:11:19.084Z,3.18
2023-01-30T04:13:48.478Z,3.00
2023-01-30T04:16:20.322Z,2.96
2023-01-30T04:18:52.321Z,2.89
2023-01-30T04:21:22.304Z,2.84
2023-01-30T04:23:51.748Z,2.86
2023-01-30T04:26:21.363Z,2.86
2023-01-30T04:28:50.804Z,2.87
2023-01-30T04:31:20.429Z,2.88
2023-01-30T04:33:52.476Z,2.88
2023-01-30T04:36:21.899Z,2.88
2023-01-30T04:38:51.331Z,2.90
2023-01-30T04:41:20.770Z,2.93
2023-01-30T04:43:50.189Z,2.97
2023-01-30T04:46:19.698Z,2.97
2023-01-30T04:48:51.717Z,3.03
2023-01-30T04:51:21.103Z,3.05
2023-01-30T04:53:50.466Z,3.04
2023-01-30T04:56:20.086Z,3.05
2023-01-30T04:58:49.486Z,3.05
2023-01-30T05:01:24.354Z,3.09
2023-01-30T05:03:56.997Z,3.12
2023-01-30T05:06:26.972Z,3.13
2023-01-30T05:08:57.876Z,3.16
2023-01-30T05:11:28.462Z,3.18
2023-01-30T05:13:58.360Z,3.18
2023-01-30T05:16:28.347Z,3.18
2023-01-30T05:19:00.377Z,3.21
2023-01-30T05:21:30.512Z,3.25
2023-01-30T05:24:00.464Z,3.26
2023-01-30T05:26:29.900Z,3.29
2023-01-30T05:29:00.504Z,3.31
2023-01-30T05:31:30.006Z,3.28
2023-01-30T05:34:02.021Z,3.28
2023-01-30T05:36:31.545Z,3.27
2023-01-30T05:39:00.923Z,3.28
2023-01-30T05:41:30.545Z,3.27
2023-01-30T05:43:59.956Z,3.25
2023-01-30T05:46:29.495Z,3.24
2023-01-30T05:49:01.854Z,3.21
2023-01-30T05:51:31.215Z,3.17
2023-01-30T05:54:00.888Z,3.14
2023-01-30T05:56:33.245Z,3.15
2023-01-30T05:59:04.700Z,3.14
2023-01-30T06:01:34.498Z,3.07
2023-01-30T06:04:06.749Z,3.05
2023-01-30T06:06:36.252Z,3.03
2023-01-30T06:09:05.838Z,3.02
2023-01-30T06:11:35.467Z,3.02
2023-01-30T06:14:04.927Z,3.04
2023-01-30T06:16:34.377Z,2.99
2023-01-30T06:19:06.410Z,2.97
2023-01-30T06:21:35.833Z,2.96
2023-01-30T06:24:05.221Z,2.95
2023-01-30T06:26:34.780Z,2.92
2023-01-30T06:29:04.171Z,2.91
2023-01-30T06:31:33.741Z,2.88
2023-01-30T06:34:05.750Z,2.86
2023-01-30T06:36:35.266Z,2.83
2023-01-30T06:39:04.703Z,2.84
2023-01-30T06:41:34.077Z,2.82
2023-01-30T06:44:03.520Z,2.83
2023-01-30T06:46:32.954Z,2.83
2023-01-30T06:49:02.383Z,2.85
2023-01-30T06:51:34.368Z,2.87
2023-01-30T06:54:03.746Z,2.84
2023-01-30T06:56:33.237Z,2.84
2023-01-30T06:59:02.763Z,2.87
2023-01-30T07:01:32.334Z,2.88
2023-01-30T07:04:01.795Z,2.86
2023-01-30T07:06:33.905Z,2.80
2023-01-30T07:09:03.379Z,2.79
2023-01-30T07:11:32.912Z,2.72
2023-01-30T07:14:02.384Z,2.74
2023-01-30T07:16:31.951Z,2.73
2023-01-30T07:19:01.398Z,2.71
2023-01-30T07:21:30.916Z,2.67
2023-01-30T07:24:02.888Z,2.72
2023-01-30T07:26:32.450Z,2.74
2023-01-30T07:29:01.909Z,2.73
2023-01-30T07:31:31.370Z,2.73
2023-01-30T07:34:00.763Z,2.74
2023-01-30T07:36:33.561Z,2.75
2023-01-30T07:39:05.636Z,2.84
2023-01-30T07:41:35.111Z,2.93
2023-01-30T07:44:04.887Z,2.95
2023-01-30T07:46:35.167Z,2.96
2023-01-30T07:49:05.036Z,2.94
2023-01-30T07:51:34.821Z,2.91
2023-01-30T07:54:06.998Z,2.91
2023-01-30T07:56:37.297Z,2.90
2023-01-30T07:59:06.704Z,2.90
2023-01-30T08:01:36.336Z,2.92
2023-01-30T08:04:05.987Z,2.86
2023-01-30T08:06:39.083Z,2.81
2023-01-30T08:09:11.505Z,2.76
2023-01-30T08:11:40.896Z,2.60
2023-01-30T08:14:10.305Z,2.49
2023-01-30T08:16:39.771Z,2.55
2023-01-30T08:19:09.237Z,2.57
2023-01-30T08:21:38.974Z,2.74
2023-01-30T08:24:11.560Z,2.74
2023-01-30T08:26:40.949Z,3.05
2023-01-30T08:29:10.388Z,2.84
2023-01-30T08:31:39.889Z,2.83
2023-01-30T08:34:09.336Z,2.86
2023-01-30T08:36:38.746Z,2.89
2023-01-30T08:39:10.843Z,2.84
2023-01-30T08:41:43.073Z,2.91
2023-01-30T08:44:12.506Z,2.95
2023-01-30T08:46:42.690Z,2.97
2023-01-30T08:49:13.410Z,3.03
2023-01-30T08:51:42.932Z,3.09
2023-01-30T08:54:15.368Z,3.12
2023-01-30T08:56:44.819Z,3.17
2023-01-30T08:59:14.237Z,3.40
2023-01-30T09:01:43.678Z,3.38
2023-01-30T09:04:13.066Z,3.60
2023-01-30T09:06:42.425Z,3.67
2023-01-30T09:09:11.820Z,3.62
2023-01-30T09:11:43.953Z,3.84
2023-01-30T09:14:13.356Z,3.58
2023-01-30T09:16:42.824Z,3.55
2023-01-30T09:19:12.365Z,3.79
2023-01-30T09:21:41.845Z,3.75
2023-01-30T09:24:11.406Z,3.92
2023-01-30T09:26:45.221Z,4.09
2023-01-30T09:29:15.013Z,4.00
2023-01-30T09:31:44.449Z,4.09
2023-01-30T09:34:13.902Z,4.02
2023-01-30T09:36:43.342Z,3.96
2023-01-30T09:39:12.849Z,3.99
2023-01-30T09:42:11.962Z,3.98
2023-01-30T09:44:55.575Z,3.94
2023-01-30T09:47:31.432Z,3.96
2023-01-30T09:50:08.866Z,4.05
2023-01-30T09:52:42.479Z,4.01
2023-01-30T09:55:20.449Z,3.78
2023-01-30T09:57:53.685Z,3.60
2023-01-30T10:00:27.918Z,3.59
2023-01-30T10:03:03.918Z,3.62
2023-01-30T10:05:39.625Z,3.48
2023-01-30T10:08:27.116Z,3.37
2023-01-30T10:11:10.106Z,3.28
2023-01-30T10:14:07.204Z,3.22
2023-01-30T10:16:41.781Z,3.21
2023-01-30T10:19:35.664Z,3.31
2023-01-30T10:22:14.383Z,3.35
2023-01-30T10:24:52.056Z,3.28
2023-01-30T10:27:22.395Z,3.23
2023-01-30T10:29:57.102Z,3.15
2023-01-30T10:32:30.246Z,3.14
2023-01-30T10:35:01.335Z,3.33
2023-01-30T10:37:35.152Z,3.45
2023-01-30T10:40:08.348Z,3.52
2023-01-30T10:42:41.183Z,3.49
2023-01-30T10:45:16.211Z,3.61
2023-01-30T10:47:54.994Z,3.73
2023-01-30T10:50:28.730Z,3.63
2023-01-30T10:53:02.888Z,3.56
2023-01-30T10:55:38.416Z,3.43
2023-01-30T10:58:15.148Z,3.12
2023-01-30T11:00:52.263Z,2.83
2023-01-30T11:03:25.535Z,2.60
2023-01-30T11:05:56.733Z,2.35
2023-01-30T11:08:27.920Z,2.05
2023-01-30T11:10:58.555Z,1.95
2023-01-30T11:13:31.361Z,1.89
2023-01-30T11:16:08.360Z,1.93
2023-01-30T11:21:44.004Z,1.92
2023-01-30T11:24:19.725Z,1.87
2023-01-30T11:26:49.927Z,1.89
2023-01-30T11:29:27.994Z,1.86
2023-01-30T11:32:04.588Z,1.94
2023-01-30T11:34:34.122Z,1.95
2023-01-30T11:37:24.689Z,2.01
2023-01-30T11:39:55.209Z,2.07
2023-01-30T11:42:28.537Z,2.14
2023-01-30T11:45:15.648Z,2.23
2023-01-30T11:47:57.975Z,2.39
2023-01-30T11:50:39.500Z,2.46
2023-01-30T11:53:22.967Z,2.51
2023-01-30T11:56:02.898Z,2.60
2023-01-30T11:58:37.558Z,2.66
2023-01-30T12:01:07.769Z,2.70
2023-01-30T12:03:45.523Z,2.76
2023-01-30T12:06:15.044Z,2.99
2023-01-30T12:08:45.707Z,3.21
2023-01-30T12:11:29.097Z,3.18
2023-01-30T12:14:04.204Z,3.02
2023-01-30T12:16:45.829Z,2.95
2023-01-30T12:19:27.541Z,2.79
2023-01-30T12:22:02.789Z,2.52
2023-01-30T12:24:39.073Z,2.43
2023-01-30T12:27:15.429Z,2.07
2023-01-30T12:29:54.155Z,1.67
2023-01-30T12:32:25.758Z,1.65
2023-01-30T12:34:58.256Z,1.56
2023-01-30T12:37:46.118Z,1.54
2023-01-30T12:40:24.777Z,1.53
2023-01-30T12:43:14.133Z,1.66
2023-01-30T12:45:46.645Z,1.87
2023-01-30T12:48:44.143Z,2.19
2023-01-30T12:51:34.378Z,2.47
2023-01-30T12:54:08.884Z,2.67
2023-01-30T12:56:51.466Z,2.67
2023-01-30T12:59:24.961Z,2.68
2023-01-30T13:02:08.225Z,2.71
2023-01-30T13:04:56.429Z,2.91
2023-01-30T13:07:38.148Z,3.24
2023-01-30T13:10:14.046Z,3.48
2023-01-30T13:12:49.524Z,3.30
2023-01-30T13:15:24.964Z,3.28
2023-01-30T13:18:02.903Z,3.30
2023-01-30T13:20:46.572Z,3.29
2023-01-30T13:23:20.955Z,3.30
2023-01-30T13:25:58.733Z,3.32
2023-01-30T13:28:29.864Z,3.36
2023-01-30T13:30:59.532Z,3.38
2023-01-30T13:33:31.606Z,3.40
2023-01-30T13:36:08.664Z,3.38
2023-01-30T13:38:43.650Z,3.28
2023-01-30T13:41:15.579Z,3.22
2023-01-30T13:43:47.251Z,3.02
2023-01-30T13:46:21.266Z,2.87
2023-01-30T13:49:03.164Z,2.90
2023-01-30T13:51:44.696Z,2.94
2023-01-30T13:54:28.945Z,2.97
2023-01-30T13:57:02.001Z,2.97
2023-01-30T13:59:47.307Z,3.01
2023-01-30T14:02:21.833Z,3.01
2023-01-30T14:04:55.863Z,3.05
2023-01-30T14:07:28.137Z,3.13
2023-01-30T14:10:17.662Z,3.24
2023-01-30T14:12:48.811Z,3.28
2023-01-30T14:15:28.909Z,3.32
2023-01-30T14:18:07.810Z,3.37
2023-01-30T14:20:38.349Z,3.46
2023-01-30T14:23:09.614Z,3.51
2023-01-30T14:25:52.518Z,3.56
2023-01-30T14:28:47.203Z,3.61
2023-01-30T14:31:49.979Z,3.62
2023-01-30T14:34:52.955Z,3.63
2023-01-30T14:37:34.179Z,3.63
2023-01-30T14:40:05.161Z,3.63
2023-01-30T14:42:37.181Z,3.66
2023-01-30T14:45:08.519Z,3.69
2023-01-30T14:47:47.155Z,3.72
2023-01-30T14:50:22.765Z,3.74
2023-01-30T14:52:52.675Z,3.73
2023-01-30T14:55:24.248Z,3.72
2023-01-30T14:58:00.556Z,3.72
2023-01-30T15:00:33.143Z,3.72
2023-01-30T15:03:04.402Z,3.72
2023-01-30T15:05:36.217Z,3.72
2023-01-30T15:08:09.587Z,3.74
2023-01-30T15:11:09.706Z,3.69
2023-01-30T15:13:46.540Z,3.65
2023-01-30T15:16:42.886Z,3.64
2023-01-30T15:19:25.778Z,3.64
2023-01-30T15:22:02.905Z,3.68
2023-01-30T15:25:01.996Z,3.70
2023-01-30T15:27:35.697Z,3.73
2023-01-30T15:30:25.471Z,3.67
2023-01-30T15:33:10.413Z,3.66
2023-01-30T15:35:39.854Z,3.66
2023-01-30T15:38:26.660Z,3.64
2023-01-30T15:40:57.012Z,3.65
2023-01-30T15:43:51.175Z,3.64
2023-01-30T15:46:31.695Z,3.64
2023-01-30T15:49:11.196Z,3.63
2023-01-30T15:51:40.783Z,3.66
2023-01-30T15:54:13.376Z,3.63
2023-01-30T15:56:43.487Z,3.60
2023-01-30T15:59:27.686Z,3.59
2023-01-30T16:02:11.264Z,3.55
2023-01-30T16:04:40.814Z,3.56
2023-01-30T16:07:19.398Z,3.53
2023-01-30T16:10:12.716Z,3.52
2023-01-30T16:12:42.400Z,3.50
2023-01-30T16:15:20.179Z,3.51
2023-01-30T16:17:59.985Z,3.52
2023-01-30T16:20:29.686Z,3.49
2023-01-30T16:22:59.183Z,3.47
2023-01-30T16:25:29.869Z,3.46
2023-01-30T16:27:59.318Z,3.44
2023-01-30T16:30:30.128Z,3.42
2023-01-30T16:33:11.941Z,3.41
2023-01-30T16:35:46.800Z,3.34
2023-01-30T16:38:34.237Z,3.28
2023-01-30T16:41:03.815Z,3.24
2023-01-30T16:43:34.679Z,3.22
2023-01-30T16:46:47.726Z,3.19
2023-01-30T16:49:23.656Z,3.20
2023-01-30T16:51:53.713Z,3.20
2023-01-30T16:54:27.649Z,3.16
2023-01-30T16:56:58.561Z,3.13
2023-01-30T16:59:32.427Z,3.11
2023-01-30T17:02:03.361Z,3.12
2023-01-30T17:04:41.312Z,3.13
2023-01-30T17:07:34.714Z,3.12
2023-01-30T17:10:04.161Z,3.14
2023-01-30T17:12:41.410Z,3.14
2023-01-30T17:15:34.120Z,3.15
2023-01-30T17:18:05.766Z,3.14
2023-01-30T17:20:41.620Z,3.11
2023-01-30T17:23:12.573Z,3.10
2023-01-30T17:25:45.043Z,3.10
2023-01-30T17:28:21.454Z,3.10
2023-01-30T17:30:53.825Z,3.14
2023-01-30T17:33:23.325Z,3.10
2023-01-30T17:35:55.325Z,3.12
2023-01-30T17:38:24.761Z,3.10
2023-01-30T17:40:54.210Z,3.08
2023-01-30T17:43:23.848Z,3.02
2023-01-30T17:45:53.786Z,3.04
2023-01-30T17:48:23.799Z,3.04
2023-01-30T17:50:55.868Z,3.01
2023-01-30T17:53:25.258Z,2.97
2023-01-30T17:55:54.717Z,2.97
2023-01-30T17:58:24.118Z,2.91
2023-01-30T18:00:53.593Z,2.92
2023-01-30T18:03:25.932Z,2.86
2023-01-30T18:05:58.422Z,2.81
2023-01-30T18:08:27.848Z,2.81
2023-01-30T18:10:57.305Z,2.79
2023-01-30T18:13:26.755Z,2.78
2023-01-30T18:15:59.770Z,2.80
2023-01-30T18:18:29.581Z,2.78
2023-01-30T18:21:01.592Z,2.79
2023-01-30T18:23:31.262Z,2.79
2023-01-30T18:26:00.716Z,2.80
2023-01-30T18:28:30.084Z,2.79
2023-01-30T18:30:59.818Z,2.74
2023-01-30T18:33:29.402Z,2.72
2023-01-30T18:36:01.401Z,2.67
2023-01-30T18:38:30.865Z,2.63
2023-01-30T18:41:00.367Z,2.69
2023-01-30T18:43:29.773Z,2.66
2023-01-30T18:46:06.293Z,2.63
2023-01-30T18:48:36.259Z,2.61
2023-01-30T18:51:14.665Z,2.52
2023-01-30T18:53:44.372Z,2.56
2023-01-30T18:56:15.221Z,2.62
2023-01-30T18:58:44.988Z,2.60
2023-01-30T19:01:15.879Z,2.56
2023-01-30T19:03:45.555Z,2.52
2023-01-30T19:06:18.865Z,2.46
2023-01-30T19:08:48.402Z,2.44
2023-01-30T19:11:32.000Z,2.46
2023-01-30T19:14:02.066Z,2.44
2023-01-30T19:16:32.973Z,2.46
2023-01-30T19:19:03.177Z,2.46
2023-01-30T19:21:35.305Z,2.39
2023-01-30T19:24:06.772Z,2.33
2023-01-30T19:26:36.954Z,2.31
2023-01-30T19:29:06.427Z,2.29
2023-01-30T19:31:36.332Z,2.26
2023-01-30T19:34:07.428Z,2.22
2023-01-30T19:36:40.463Z,2.18
2023-01-30T19:39:09.880Z,2.17
2023-01-30T19:41:39.941Z,2.15
2023-01-30T19:44:10.942Z,2.16
2023-01-30T19:46:40.572Z,2.18
2023-01-30T19:49:10.062Z,2.13
2023-01-30T19:51:42.200Z,2.12
2023-01-30T19:54:13.921Z,2.13
2023-01-30T19:56:47.471Z,2.13
2023-01-30T19:59:17.452Z,2.09
2023-01-30T20:01:47.182Z,2.06
2023-01-30T20:04:16.674Z,2.07
2023-01-30T20:06:49.793Z,2.09
2023-01-30T20:09:19.620Z,2.06
2023-01-30T20:11:49.089Z,2.07
2023-01-30T20:14:18.492Z,2.02
2023-01-30T20:16:48.167Z,2.02
2023-01-30T20:19:18.524Z,1.99
2023-01-30T20:21:50.573Z,2.01
2023-01-30T20:24:20.006Z,2.02
2023-01-30T20:26:51.726Z,2.02
2023-01-30T20:29:21.175Z,1.99
2023-01-30T20:31:50.597Z,1.98
2023-01-30T20:34:20.226Z,1.96
2023-01-30T20:36:52.415Z,1.95
2023-01-30T20:39:22.169Z,1.92
2023-01-30T20:41:51.551Z,1.93
2023-01-30T20:44:21.098Z,1.93
2023-01-30T20:46:50.920Z,1.89
2023-01-30T20:49:21.762Z,1.94
2023-01-30T20:51:55.324Z,1.93
2023-01-30T20:54:25.734Z,1.97
2023-01-30T20:56:56.756Z,1.98
2023-01-30T20:59:28.625Z,2.00
2023-01-30T21:01:58.076Z,2.08
2023-01-30T21:04:27.592Z,2.17
2023-01-30T21:06:59.699Z,2.17
2023-01-30T21:09:29.207Z,2.18
2023-01-30T21:11:58.630Z,2.18
2023-01-30T21:14:28.180Z,2.22
2023-01-30T21:16:57.559Z,2.21
2023-01-30T21:19:26.980Z,2.16
2023-01-30T21:22:07.508Z,2.13
2023-01-30T21:24:36.923Z,2.11
2023-01-30T21:27:06.458Z,2.10
2023-01-30T21:29:36.873Z,2.03
2023-01-30T21:32:06.303Z,2.01
2023-01-30T21:34:35.981Z,1.96
2023-01-30T21:37:20.429Z,1.92
2023-01-30T21:40:02.343Z,1.83
2023-01-30T21:42:58.848Z,1.87
2023-01-30T21:45:28.226Z,1.90
2023-01-30T21:47:57.955Z,1.85
2023-01-30T21:50:29.788Z,1.82
2023-01-30T21:53:01.891Z,1.87
2023-01-30T21:55:31.345Z,1.87
2023-01-30T21:58:00.707Z,1.88
2023-01-30T22:00:32.967Z,1.89
2023-01-30T22:03:02.391Z,1.92
2023-01-30T22:05:36.530Z,1.96
2023-01-30T22:08:08.830Z,1.99
2023-01-30T22:10:38.698Z,2.02
2023-01-30T22:13:08.141Z,2.02
2023-01-30T22:15:37.541Z,2.04
2023-01-30T22:18:07.258Z,2.05
2023-01-30T22:20:36.692Z,2.10
2023-01-30T22:23:08.721Z,2.18
2023-01-30T22:25:38.526Z,2.20
2023-01-30T22:28:10.163Z,2.23
2023-01-30T22:30:41.591Z,2.22
2023-01-30T22:33:11.017Z,2.26
2023-01-30T22:35:40.466Z,2.27
2023-01-30T22:38:12.461Z,2.27
2023-01-30T22:40:41.900Z,2.28
2023-01-30T22:43:11.325Z,2.34
2023-01-30T22:45:40.765Z,2.36
2023-01-30T22:48:10.167Z,2.36
2023-01-30T22:50:39.642Z,2.37
2023-01-30T22:53:14.408Z,2.33
2023-01-30T22:55:43.854Z,2.29
2023-01-30T22:58:13.226Z,2.31
2023-01-30T23:00:42.697Z,2.26
2023-01-30T23:03:12.124Z,2.27
2023-01-30T23:05:41.544Z,2.22
2023-01-30T23:08:10.926Z,2.18
2023-01-30T23:10:44.274Z,2.16
2023-01-30T23:13:16.787Z,2.13
2023-01-30T23:15:46.818Z,2.14
2023-01-30T23:18:28.956Z,2.07
2023-01-30T23:20:58.335Z,2.03
2023-01-30T23:23:27.745Z,1.97
2023-01-30T23:25:59.854Z,1.91
2023-01-30T23:28:29.230Z,1.90
2023-01-30T23:30:58.703Z,1.96
2023-01-30T23:33:28.122Z,1.99
2023-01-30T23:35:57.531Z,1.98
2023-01-30T23:38:26.938Z,2.04
2023-01-30T23:41:08.104Z,2.08
2023-01-30T23:43:37.791Z,2.07
2023-01-30T23:46:19.550Z,2.09
2023-01-30T23:48:50.214Z,2.07
2023-01-30T23:51:20.872Z,2.04
2023-01-30T23:53:50.877Z,2.08
2023-01-30T23:56:24.619Z,2.06
2023-01-30T23:58:54.270Z,2.10
